Time;durP1;ratioP1;P1;durP2;ratioP2;P2;SDS_P1;SDS_P2;PMS_P1;PMS_P2;Temp;Humidity;BMP_temperature;BMP_pressure;BME280_temperature;BME280_humidity;BME280_pressure;Samples;Min_cycle;Max_cycle;Signal;HPM_P1;HPM_P2
2023/06/28 00:02:45;;;;;;;0.25;0.25;;;;;;;21.19;50.86;101296.75;5145716;28;20042;-84
2023/06/28 00:05:37;;;;;;;0.30;0.30;;;;;;;21.12;50.76;101300.72;5140868;28;20052;-85
2023/06/28 00:08:28;;;;;;;0.43;0.43;;;;;;;21.06;51.44;101296.66;5145542;28;20072;-85
2023/06/28 00:11:18;;;;;;;0.68;0.60;;;;;;;21.03;51.98;101295.00;5145737;28;20452;-85
2023/06/28 00:14:09;;;;;;;5.88;0.75;;;;;;;20.97;51.41;101291.88;5139133;28;20039;-85
2023/06/28 00:17:00;;;;;;;1.65;1.30;;;;;;;20.95;51.63;101283.94;5141079;28;20034;-85
2023/06/28 00:19:51;;;;;;;0.45;0.45;;;;;;;20.99;51.79;101288.16;5158052;28;20057;-85
2023/06/28 00:22:42;;;;;;;0.30;0.30;;;;;;;20.88;51.90;101285.28;5140037;28;20518;-84
2023/06/28 00:25:32;;;;;;;0.75;0.50;;;;;;;20.86;52.21;101287.22;5156111;28;20030;-85
2023/06/28 00:28:23;;;;;;;0.30;0.30;;;;;;;20.86;51.81;101288.06;5140449;28;20510;-85
2023/06/28 00:31:14;;;;;;;0.20;0.20;;;;;;;20.82;51.83;101291.88;5142486;28;20306;-85
2023/06/28 00:34:05;;;;;;;0.25;0.25;;;;;;;20.79;51.82;101297.38;5141968;28;20068;-85
2023/06/28 00:36:55;;;;;;;0.52;0.50;;;;;;;20.84;52.48;101294.44;5152991;28;20047;-85
2023/06/28 00:39:46;;;;;;;0.38;0.38;;;;;;;20.86;52.13;101303.22;5142773;28;20122;-84
2023/06/28 00:42:37;;;;;;;0.28;0.28;;;;;;;20.75;52.01;101304.72;5159550;28;20035;-84
2023/06/28 00:45:28;;;;;;;0.20;0.20;;;;;;;20.72;51.43;101306.69;5147154;28;20032;-84
2023/06/28 00:48:19;;;;;;;0.40;0.40;;;;;;;20.71;52.14;101304.97;5149224;28;20397;-84
2023/06/28 00:51:10;;;;;;;0.50;0.50;;;;;;;20.66;52.46;101312.41;5141347;28;20109;-85
2023/06/28 00:54:01;;;;;;;2.17;1.75;;;;;;;20.66;52.19;101317.72;5149765;28;20030;-84
2023/06/28 00:56:52;;;;;;;0.65;0.65;;;;;;;20.71;52.14;101321.81;5160541;28;20038;-86
2023/06/28 00:59:43;;;;;;;0.70;0.65;;;;;;;20.69;52.78;101307.72;5170308;28;20026;-85
2023/06/28 01:02:35;;;;;;;0.40;0.38;;;;;;;20.62;52.19;101310.84;5164369;28;20034;-86
2023/06/28 01:05:26;;;;;;;2.80;0.73;;;;;;;20.52;52.42;101305.22;5191836;28;20094;-86
2023/06/28 01:08:18;;;;;;;0.20;0.20;;;;;;;20.48;53.60;101314.34;5161106;28;20092;-85
2023/06/28 01:11:10;;;;;;;0.30;0.30;;;;;;;20.47;52.72;101317.94;5163480;28;20089;-84
2023/06/28 01:14:03;;;;;;;12.43;1.27;;;;;;;20.43;53.61;101318.16;5160320;28;20031;-84
2023/06/28 01:16:57;;;;;;;0.40;0.40;;;;;;;20.42;53.27;101319.09;5162498;28;20450;-85
2023/06/28 01:19:48;;;;;;;0.40;0.40;;;;;;;20.41;52.99;101313.88;5145124;28;20030;-85
2023/06/28 01:22:40;;;;;;;0.43;0.43;;;;;;;20.41;53.68;101314.72;5138475;28;20497;-84
2023/06/28 01:25:31;;;;;;;0.30;0.30;;;;;;;20.42;54.60;101318.22;5157920;28;20043;-84
2023/06/28 01:28:22;;;;;;;1.13;1.02;;;;;;;20.35;54.37;101322.19;5152841;28;20038;-84
2023/06/28 01:31:13;;;;;;;8.32;1.70;;;;;;;20.32;54.26;101315.25;5140271;28;20081;-84
2023/06/28 01:34:04;;;;;;;0.52;0.52;;;;;;;20.37;53.92;101317.66;5140538;28;20054;-85
2023/06/28 01:36:59;;;;;;;0.35;0.35;;;;;;;20.34;54.23;101320.47;5147175;28;20097;-84
2023/06/28 01:39:50;;;;;;;1.98;1.48;;;;;;;20.29;53.32;101321.63;5145853;28;20030;-84
2023/06/28 01:42:42;;;;;;;0.80;0.68;;;;;;;20.35;54.04;101330.19;5154121;28;20084;-84
2023/06/28 01:45:34;;;;;;;1.48;0.52;;;;;;;20.36;54.13;101330.13;5156743;28;20069;-84
2023/06/28 01:48:25;;;;;;;1.10;1.02;;;;;;;20.28;53.73;101327.06;5167780;28;20133;-85
2023/06/28 01:51:16;;;;;;;8.88;3.13;;;;;;;20.20;53.85;101324.81;5140274;28;20351;-85
2023/06/28 01:54:07;;;;;;;3.13;1.48;;;;;;;20.19;53.81;101319.59;5166418;28;20389;-85
2023/06/28 01:56:58;;;;;;;1.05;0.93;;;;;;;20.09;54.60;101319.25;5141682;28;20472;-84
2023/06/28 01:59:49;;;;;;;12.18;2.15;;;;;;;20.12;54.01;101330.59;5154467;28;20041;-84
2023/06/28 02:02:39;;;;;;;0.55;0.55;;;;;;;20.15;53.85;101328.69;5143668;28;20036;-85
2023/06/28 02:05:31;;;;;;;1.30;1.20;;;;;;;20.13;54.02;101323.47;5141635;28;20063;-85
2023/06/28 02:08:21;;;;;;;1.17;1.08;;;;;;;20.08;54.41;101323.72;5137636;28;20089;-85
2023/06/28 02:11:12;;;;;;;0.40;0.40;;;;;;;20.07;53.99;101324.66;5140628;28;20030;-85
2023/06/28 02:14:03;;;;;;;4.85;0.77;;;;;;;20.05;54.49;101329.22;5153008;28;20030;-85
2023/06/28 02:16:54;;;;;;;0.38;0.38;;;;;;;20.02;54.22;101329.41;5151135;28;20492;-85
2023/06/28 02:19:45;;;;;;;0.32;0.32;;;;;;;20.03;54.24;101331.13;5150619;28;20535;-85
2023/06/28 02:22:37;;;;;;;3.47;1.20;;;;;;;20.08;54.91;101325.56;5151501;28;20053;-86
2023/06/28 02:25:28;;;;;;;4.47;1.05;;;;;;;20.07;54.48;101327.34;5138836;28;20103;-85
2023/06/28 02:28:19;;;;;;;0.80;0.80;;;;;;;20.06;54.49;101325.63;5153016;28;20062;-85
2023/06/28 02:31:10;;;;;;;4.30;2.38;;;;;;;20.02;54.63;101318.75;5146278;28;20079;-86
2023/06/28 02:34:01;;;;;;;3.63;2.40;;;;;;;19.98;54.02;101322.53;5151519;28;20038;-85
2023/06/28 02:36:52;;;;;;;1.17;0.70;;;;;;;19.95;54.51;101322.72;5141880;28;20061;-85
2023/06/28 02:39:43;;;;;;;0.40;0.40;;;;;;;19.87;54.56;101316.97;5140313;28;20528;-85
2023/06/28 02:42:34;;;;;;;0.40;0.40;;;;;;;19.86;54.77;101316.09;5141925;28;20064;-85
2023/06/28 02:45:25;;;;;;;2.28;1.05;;;;;;;19.80;54.81;101317.28;5145992;28;20058;-85
2023/06/28 02:48:15;;;;;;;0.30;0.30;;;;;;;19.79;55.07;101320.88;5158128;28;20039;-85
2023/06/28 02:51:06;;;;;;;1.02;1.02;;;;;;;19.80;55.35;101314.63;5154452;28;20110;-85
2023/06/28 02:53:57;;;;;;;0.82;0.77;;;;;;;19.78;55.07;101311.19;5166645;28;20236;-86
2023/06/28 02:56:48;;;;;;;0.70;0.65;;;;;;;19.75;55.37;101311.38;5161857;28;20030;-85
2023/06/28 02:59:38;;;;;;;0.63;0.63;;;;;;;19.77;54.64;101308.59;5143413;28;20027;-85
2023/06/28 03:02:29;;;;;;;0.38;0.38;;;;;;;19.79;55.07;101307.56;5137452;28;20043;-85
2023/06/28 03:05:20;;;;;;;0.82;0.82;;;;;;;19.79;55.60;101307.56;5153704;28;20034;-86
2023/06/28 03:08:11;;;;;;;9.77;3.58;;;;;;;19.81;55.84;101315.50;5141624;28;20035;-84
2023/06/28 03:11:02;;;;;;;0.80;0.75;;;;;;;19.79;55.85;101310.22;5149513;28;20033;-85
2023/06/28 03:13:52;;;;;;;0.43;0.43;;;;;;;19.80;55.92;101319.09;5151347;28;20066;-84
2023/06/28 03:16:43;;;;;;;0.55;0.55;;;;;;;19.79;55.57;101312.88;5179152;28;20477;-84
2023/06/28 03:19:35;;;;;;;0.50;0.40;;;;;;;19.79;55.37;101312.03;5164860;28;20026;-85
2023/06/28 03:22:25;;;;;;;0.47;0.47;;;;;;;19.77;55.78;101314.81;5152421;28;20122;-84
2023/06/28 03:25:16;;;;;;;0.63;0.63;;;;;;;19.75;55.37;101314.03;5159555;28;20030;-84
2023/06/28 03:28:07;;;;;;;0.57;0.57;;;;;;;19.75;55.61;101311.38;5157048;28;20051;-85
2023/06/28 03:30:58;;;;;;;0.35;0.35;;;;;;;19.72;55.88;101308.84;5151055;28;20396;-84
2023/06/28 03:33:49;;;;;;;9.18;0.95;;;;;;;19.70;56.22;101305.44;5158595;28;20062;-84
2023/06/28 03:36:40;;;;;;;1.13;0.90;;;;;;;19.70;56.12;101301.91;5168773;28;20050;-84
2023/06/28 03:39:31;;;;;;;0.73;0.73;;;;;;;19.69;56.64;101305.50;5181729;28;20022;-84
2023/06/28 03:42:22;;;;;;;0.30;0.30;;;;;;;19.71;57.03;101304.47;5163516;28;20042;-84
2023/06/28 03:45:12;;;;;;;0.60;0.52;;;;;;;19.67;56.58;101286.97;5183946;28;20022;-84
2023/06/28 03:48:03;;;;;;;0.30;0.30;;;;;;;19.67;56.57;101298.47;5171454;28;20031;-84
2023/06/28 03:50:54;;;;;;;0.22;0.22;;;;;;;19.73;56.68;101296.44;5157435;28;20018;-84
2023/06/28 03:53:45;;;;;;;1.83;1.38;;;;;;;19.74;57.04;101296.34;5150692;28;20472;-84
2023/06/28 03:56:36;;;;;;;3.05;1.88;;;;;;;19.71;56.49;101299.16;5160618;28;20054;-84
2023/06/28 03:59:27;;;;;;;7.43;0.65;;;;;;;19.66;57.11;101295.91;5164577;28;20026;-85
2023/06/28 04:02:18;;;;;;;0.35;0.35;;;;;;;19.65;57.62;101292.41;5158051;28;20080;-84
2023/06/28 04:05:09;;;;;;;1.17;1.08;;;;;;;19.66;57.61;101295.91;5162524;28;20041;-84
2023/06/28 04:08:02;;;;;;;3.42;1.25;;;;;;;19.61;57.09;101290.00;5163683;28;20034;-85
2023/06/28 04:10:54;;;;;;;1.17;0.50;;;;;;;19.56;57.69;101300.03;5162646;28;20038;-85
2023/06/28 04:13:45;;;;;;;1.30;1.20;;;;;;;19.59;57.10;101294.53;5161948;28;20184;-84
2023/06/28 04:16:35;;;;;;;1.95;1.30;;;;;;;19.57;57.44;101289.31;5165408;28;20035;-85
2023/06/28 04:19:26;;;;;;;0.50;0.50;;;;;;;19.59;57.30;101295.38;5178445;28;20325;-85
2023/06/28 04:22:17;;;;;;;1.80;1.65;;;;;;;19.62;57.01;101295.22;5164277;28;20057;-85
2023/06/28 04:25:08;;;;;;;0.80;0.80;;;;;;;19.59;57.43;101297.19;5161506;28;20019;-85
2023/06/28 04:27:59;;;;;;;0.38;0.38;;;;;;;19.59;56.88;101300.69;5164785;28;20030;-85
2023/06/28 04:30:50;;;;;;;0.40;0.40;;;;;;;19.55;57.36;101299.19;5169446;28;20030;-84
2023/06/28 04:33:40;;;;;;;0.40;0.40;;;;;;;19.55;57.57;101311.59;5178747;28;20062;-84
2023/06/28 04:36:31;;;;;;;0.30;0.30;;;;;;;19.51;57.86;101308.25;5160736;28;20030;-85
2023/06/28 04:39:22;;;;;;;0.35;0.35;;;;;;;19.54;57.90;101304.59;5151348;28;20058;-84
2023/06/28 04:42:16;;;;;;;0.45;0.45;;;;;;;19.55;57.75;101308.94;5167734;28;20050;-85
2023/06/28 04:45:09;;;;;;;0.80;0.80;;;;;;;19.58;57.35;101306.13;5159401;28;20501;-85
2023/06/28 04:48:01;;;;;;;0.30;0.30;;;;;;;19.55;57.70;101293.84;5179538;28;20038;-84
2023/06/28 04:50:52;;;;;;;0.60;0.60;;;;;;;19.58;57.82;101292.81;5155384;28;20037;-84
2023/06/28 04:53:43;;;;;;;2.00;1.15;;;;;;;19.59;57.79;101306.03;5170347;28;20098;-82
2023/06/28 04:56:34;;;;;;;0.40;0.40;;;;;;;19.56;58.16;101295.56;5159262;28;20125;-81
2023/06/28 04:59:24;;;;;;;5.00;1.08;;;;;;;19.59;57.68;101294.53;5159175;28;20111;-82
2023/06/28 05:02:16;;;;;;;0.30;0.30;;;;;;;19.56;58.10;101289.38;5156259;28;20336;-82
2023/06/28 05:05:07;;;;;;;0.40;0.40;;;;;;;19.52;58.40;101295.81;5175967;28;20161;-82
2023/06/28 05:07:59;;;;;;;2.17;1.70;;;;;;;19.53;58.34;101298.41;5144841;28;20030;-83
2023/06/28 05:10:49;;;;;;;7.28;2.17;;;;;;;19.57;58.14;101296.41;5158007;28;20091;-83
2023/06/28 05:13:41;;;;;;;0.98;0.77;;;;;;;19.58;57.76;101295.47;5138245;28;20042;-83
2023/06/28 05:16:32;;;;;;;3.33;1.27;;;;;;;19.55;58.26;101298.28;5157319;28;20049;-82
2023/06/28 05:19:24;;;;;;;2.85;1.30;;;;;;;19.61;59.33;101292.66;5150817;28;20126;-82
2023/06/28 05:22:14;;;;;;;0.50;0.50;;;;;;;19.61;58.21;101293.50;5150001;28;20083;-82
2023/06/28 05:25:05;;;;;;;0.30;0.30;;;;;;;19.71;60.42;101291.16;5162249;28;20033;-81
2023/06/28 05:27:56;;;;;;;0.60;0.60;;;;;;;19.67;60.28;101292.31;5171994;28;20039;-81
2023/06/28 05:30:47;;;;;;;0.20;0.20;;;;;;;19.61;60.60;101300.63;5153076;28;20253;-81
2023/06/28 05:33:40;;;;;;;0.88;0.88;;;;;;;19.60;61.27;101306.91;5159623;28;20082;-80
2023/06/28 05:36:32;;;;;;;0.40;0.40;;;;;;;19.60;61.06;101301.59;5163231;28;20030;-81
2023/06/28 05:39:23;;;;;;;0.40;0.40;;;;;;;19.54;60.17;101299.28;5165021;28;20046;-81
2023/06/28 05:42:14;;;;;;;0.20;0.20;;;;;;;19.43;62.75;101299.84;5166471;28;20106;-80
2023/06/28 05:45:05;;;;;;;6.68;0.55;;;;;;;19.58;59.86;101303.47;5169718;28;20054;-81
2023/06/28 05:47:57;;;;;;;8.10;1.00;;;;;;;19.59;61.11;101300.69;5155763;28;20053;-83
2023/06/28 05:50:48;;;;;;;1.77;1.20;;;;;;;19.56;59.87;101294.69;5168313;28;20026;-82
2023/06/28 05:53:40;;;;;;;0.65;0.65;;;;;;;19.54;60.57;101293.94;5168326;28;20379;-82
2023/06/28 05:56:31;;;;;;;0.63;0.47;;;;;;;19.57;59.83;101291.09;5156703;28;20142;-82
2023/06/28 05:59:22;;;;;;;0.30;0.30;;;;;;;19.56;59.73;101295.56;5160092;28;20050;-82
2023/06/28 06:02:13;;;;;;;0.98;0.95;;;;;;;19.55;59.88;101292.97;5163623;28;20092;-82
2023/06/28 06:05:04;;;;;;;0.20;0.20;;;;;;;19.59;60.10;101290.06;5150418;28;20080;-82
2023/06/28 06:07:55;;;;;;;0.40;0.40;;;;;;;19.53;61.19;101300.22;5148324;28;20038;-81
2023/06/28 06:10:45;;;;;;;1.17;0.95;;;;;;;19.54;60.24;101292.13;5152032;28;20026;-80
2023/06/28 06:13:36;;;;;;;0.95;0.73;;;;;;;19.56;59.67;101292.91;5165399;28;20039;-82
2023/06/28 06:16:27;;;;;;;0.32;0.32;;;;;;;19.61;59.21;101295.31;5169674;28;20038;-83
2023/06/28 06:19:18;;;;;;;0.30;0.30;;;;;;;19.64;59.66;101292.47;5145065;28;20070;-82
2023/06/28 06:22:09;;;;;;;0.40;0.40;;;;;;;19.62;59.49;101289.06;5161881;28;20042;-82
2023/06/28 06:25:00;;;;;;;0.70;0.70;;;;;;;19.64;59.53;101289.81;5143534;28;20113;-82
2023/06/28 06:27:50;;;;;;;0.45;0.45;;;;;;;19.68;59.73;101296.69;5154163;28;20370;-82
2023/06/28 06:30:41;;;;;;;0.30;0.30;;;;;;;19.68;61.05;101304.66;5150237;28;20420;-82
2023/06/28 06:33:32;;;;;;;0.43;0.43;;;;;;;19.68;60.28;101299.34;5141938;28;20719;-82
2023/06/28 06:36:23;;;;;;;0.50;0.50;;;;;;;19.69;59.83;101300.19;5158488;28;20114;-81
2023/06/28 06:39:14;;;;;;;0.22;0.22;;;;;;;19.65;60.04;101294.19;5143269;28;20039;-80
2023/06/28 06:42:05;;;;;;;0.50;0.50;;;;;;;19.67;60.44;101298.47;5144423;28;20050;-81
2023/06/28 06:44:56;;;;;;;0.30;0.30;;;;;;;19.61;60.03;101297.97;5169821;28;20810;-82
2023/06/28 06:47:47;;;;;;;0.30;0.30;;;;;;;19.64;61.40;101295.13;5165945;28;20065;-83
2023/06/28 06:50:38;;;;;;;0.30;0.30;;;;;;;19.57;61.83;101299.94;5166200;28;20022;-81
2023/06/28 06:53:28;;;;;;;1.55;0.77;;;;;;;19.61;61.12;101298.81;5192048;28;20030;-80
2023/06/28 06:56:21;;;;;;;0.80;0.63;;;;;;;19.33;63.79;101304.81;5160564;28;20035;-80
2023/06/28 06:59:12;;;;;;;0.60;0.60;;;;;;;19.46;62.82;101302.34;5157409;28;20312;-81
2023/06/28 07:02:03;;;;;;;0.93;0.90;;;;;;;19.61;60.93;101306.81;5164035;28;20050;-81
2023/06/28 07:04:54;;;;;;;0.30;0.30;;;;;;;19.58;61.33;101308.78;5153693;28;20038;-80
2023/06/28 07:07:45;;;;;;;1.38;0.98;;;;;;;19.53;61.95;101305.53;5160687;28;20057;-81
2023/06/28 07:10:36;;;;;;;1.00;0.55;;;;;;;19.52;61.81;101304.66;5156626;28;20037;-81
2023/06/28 07:13:26;;;;;;;0.28;0.28;;;;;;;19.48;63.51;101303.97;5157002;28;20038;-81
2023/06/28 07:16:17;;;;;;;0.82;0.82;;;;;;;19.50;63.37;101307.41;5152212;28;20109;-81
2023/06/28 07:19:08;;;;;;;2.15;0.50;;;;;;;19.61;62.38;101306.81;5163003;28;20039;-82
2023/06/28 07:21:59;;;;;;;0.30;0.30;;;;;;;19.65;61.04;101307.50;5177883;28;20050;-81
2023/06/28 07:24:49;;;;;;;0.35;0.35;;;;;;;19.70;61.12;101307.22;5160360;28;20027;-82
2023/06/28 07:27:40;;;;;;;0.30;0.30;;;;;;;19.72;61.03;101306.19;5167834;28;20427;-81
2023/06/28 07:30:50;;;;;;;1.50;1.40;;;;;;;19.61;62.00;101304.16;5169970;28;20042;-82
2023/06/28 07:33:41;;;;;;;0.30;0.30;;;;;;;19.71;61.22;101309.81;5168636;28;20572;-82
2023/06/28 07:36:32;;;;;;;0.55;0.55;;;;;;;19.75;60.70;101300.72;5166028;28;20057;-81
2023/06/28 07:39:23;;;;;;;0.32;0.32;;;;;;;19.70;61.86;101296.59;5171917;28;20046;-83
2023/06/28 07:42:14;;;;;;;0.32;0.32;;;;;;;19.76;60.69;101294.44;5169416;28;20043;-81
2023/06/28 07:45:05;;;;;;;0.45;0.45;;;;;;;19.82;60.96;101296.75;5185680;28;20057;-81
2023/06/28 07:47:57;;;;;;;0.40;0.40;;;;;;;19.81;61.14;101300.34;5163316;28;20045;-82
2023/06/28 07:50:48;;;;;;;17.50;1.50;;;;;;;19.84;60.94;101294.00;5165825;28;20097;-82
2023/06/28 07:53:39;;;;;;;0.57;0.57;;;;;;;19.92;60.64;101296.25;5149949;28;20050;-82
2023/06/28 07:56:30;;;;;;;0.20;0.20;;;;;;;19.93;60.75;101303.31;5158590;28;20034;-82
2023/06/28 07:59:20;;;;;;;0.63;0.63;;;;;;;19.92;60.82;101299.78;5151556;28;20053;-82
2023/06/28 08:02:11;;;;;;;1.05;1.05;;;;;;;19.93;60.55;101295.31;5143884;28;20050;-84
2023/06/28 08:05:02;;;;;;;0.22;0.22;;;;;;;19.95;60.18;101296.94;5156033;28;20029;-84
2023/06/28 08:07:56;;;;;;;5.10;0.32;;;;;;;19.97;60.20;101299.50;5154632;28;20031;-84
2023/06/28 08:10:47;;;;;;;0.30;0.30;;;;;;;20.03;60.36;101292.97;5144570;28;20034;-84
2023/06/28 08:13:37;;;;;;;0.20;0.20;;;;;;;20.06;60.64;101296.31;5155137;28;20449;-84
2023/06/28 08:16:28;;;;;;;1.02;0.93;;;;;;;20.11;60.54;101296.94;5144366;28;20601;-84
2023/06/28 08:19:19;;;;;;;0.32;0.32;;;;;;;20.15;61.00;101296.72;5150167;28;20047;-84
2023/06/28 08:22:10;;;;;;;0.20;0.20;;;;;;;20.20;60.95;101298.19;5158692;28;20054;-84
2023/06/28 08:25:01;;;;;;;0.60;0.60;;;;;;;20.22;60.15;101292.75;5168533;28;20476;-83
2023/06/28 08:27:51;;;;;;;0.20;0.20;;;;;;;20.25;60.65;101304.09;5155591;28;20448;-84
2023/06/28 08:30:42;;;;;;;0.30;0.30;;;;;;;20.28;61.94;101303.06;5149176;28;20027;-84
2023/06/28 08:33:33;;;;;;;0.55;0.55;;;;;;;20.35;60.68;101301.75;5166031;28;20507;-84
2023/06/28 08:36:24;;;;;;;0.40;0.40;;;;;;;20.37;60.98;101297.16;5152591;28;20070;-84
2023/06/28 08:39:15;;;;;;;0.20;0.20;;;;;;;20.45;59.86;101302.06;5159395;28;20038;-84
2023/06/28 08:42:07;;;;;;;1.02;0.77;;;;;;;20.50;59.50;101301.78;5151725;28;20039;-83
2023/06/28 08:44:59;;;;;;;0.63;0.63;;;;;;;20.48;59.66;101301.88;5154836;28;20022;-84
2023/06/28 08:47:50;;;;;;;0.40;0.40;;;;;;;20.42;59.27;101305.78;5151222;28;20504;-84
2023/06/28 08:50:43;;;;;;;0.30;0.30;;;;;;;20.41;59.90;101303.22;5138963;28;20542;-84
2023/06/28 08:53:35;;;;;;;0.20;0.20;;;;;;;20.39;59.59;101299.75;5153238;28;20506;-85
2023/06/28 08:56:27;;;;;;;0.32;0.32;;;;;;;20.49;58.74;101302.72;5135961;28;20034;-84
2023/06/28 08:59:20;;;;;;;0.50;0.50;;;;;;;20.42;59.04;101311.09;5137243;28;20053;-84
2023/06/28 09:02:15;;;;;;;0.57;0.57;;;;;;;20.47;58.67;101307.28;5164332;28;20100;-84
2023/06/28 09:05:07;;;;;;;0.40;0.40;;;;;;;20.32;59.90;101309.91;5146879;28;20178;-84
2023/06/28 09:07:59;;;;;;;0.20;0.20;;;;;;;20.47;59.09;101299.28;5136655;28;20330;-84
2023/06/28 09:10:50;;;;;;;5.28;0.75;;;;;;;20.56;58.33;101296.06;5160933;28;20037;-84
2023/06/28 09:13:41;;;;;;;0.32;0.32;;;;;;;20.52;58.28;101297.22;5158402;28;20069;-84
2023/06/28 09:16:33;;;;;;;7.78;0.65;;;;;;;20.53;59.09;101291.78;5149635;28;20033;-84
2023/06/28 09:19:23;;;;;;;0.40;0.40;;;;;;;20.62;58.40;101297.53;5153653;28;20034;-84
2023/06/28 09:22:15;;;;;;;0.32;0.32;;;;;;;20.60;59.14;101292.28;5139191;28;20493;-84
2023/06/28 09:25:06;;;;;;;0.50;0.50;;;;;;;20.73;58.85;101301.28;5146623;28;20031;-84
2023/06/28 09:27:58;;;;;;;0.20;0.20;;;;;;;20.73;59.48;101298.63;5139643;28;20084;-83
2023/06/28 09:30:54;;;;;;;0.40;0.40;;;;;;;20.75;58.70;101291.38;5149262;28;20026;-84
2023/06/28 09:33:44;;;;;;;0.30;0.30;;;;;;;20.75;59.48;101296.72;5149007;28;20045;-84
2023/06/28 09:36:37;;;;;;;0.40;0.40;;;;;;;20.84;59.71;101294.44;5151227;28;20152;-84
2023/06/28 09:39:36;;;;;;;0.30;0.30;;;;;;;20.86;58.98;101292.56;5149741;28;20465;-85
2023/06/28 09:42:27;;;;;;;0.47;0.47;;;;;;;20.94;59.20;101298.25;5147513;28;20473;-84
2023/06/28 09:45:30;;;;;;;0.65;0.50;;;;;;;21.02;58.50;101287.09;5138004;28;20133;-85
2023/06/28 09:48:25;;;;;;;0.30;0.30;;;;;;;20.94;59.00;101294.72;5149968;28;20532;-87
2023/06/28 09:51:17;;;;;;;0.75;0.70;;;;;;;21.04;58.36;101295.88;5146834;28;20294;-86
2023/06/28 09:54:08;;;;;;;0.32;0.32;;;;;;;21.13;58.01;101294.44;5151407;28;20057;-84
2023/06/28 09:57:00;;;;;;;0.40;0.40;;;;;;;21.13;57.93;101295.31;5140736;28;20208;-85
2023/06/28 09:59:53;;;;;;;0.30;0.30;;;;;;;21.04;58.29;101296.72;5149562;28;20037;-85
2023/06/28 10:02:47;;;;;;;0.77;0.77;;;;;;;21.21;58.33;101297.47;5164530;28;20042;-85
2023/06/28 10:05:40;;;;;;;0.30;0.30;;;;;;;21.30;58.56;101290.72;5139051;28;20030;-84
2023/06/28 10:08:32;;;;;;;0.32;0.32;;;;;;;21.37;58.53;101295.53;5148952;28;20117;-84
2023/06/28 10:11:24;;;;;;;0.43;0.43;;;;;;;21.36;58.64;101301.84;5152113;28;20676;-81
2023/06/28 10:14:18;;;;;;;0.40;0.40;;;;;;;21.34;57.60;101286.88;5145705;28;20354;-83
2023/06/28 10:17:10;;;;;;;1.17;0.85;;;;;;;21.39;57.20;101290.97;5136068;28;20082;-82
2023/06/28 10:20:02;;;;;;;0.57;0.57;;;;;;;21.43;57.15;101291.63;5156733;28;20031;-83
2023/06/28 10:22:54;;;;;;;1.85;1.25;;;;;;;21.50;57.35;101281.44;5151790;28;20042;-83
2023/06/28 10:25:46;;;;;;;0.68;0.68;;;;;;;21.54;57.65;101288.28;5158235;28;20037;-82
2023/06/28 10:28:39;;;;;;;0.20;0.20;;;;;;;21.78;57.02;101291.19;5152118;28;20520;-82
2023/06/28 10:31:30;;;;;;;0.20;0.20;;;;;;;21.78;57.31;101284.97;5156191;28;20022;-83
2023/06/28 10:34:21;;;;;;;2.63;0.50;;;;;;;21.86;57.11;101288.00;5154838;28;20519;-84
2023/06/28 10:37:12;;;;;;;0.40;0.40;;;;;;;21.70;56.38;101283.69;5145155;28;20118;-83
2023/06/28 10:40:05;;;;;;;0.20;0.20;;;;;;;21.91;56.43;101291.25;5146589;28;20037;-82
2023/06/28 10:42:56;;;;;;;1.35;1.05;;;;;;;22.02;57.23;101288.69;5157729;28;20042;-82
2023/06/28 10:45:47;;;;;;;0.30;0.30;;;;;;;22.07;55.86;101293.75;5161328;28;20054;-80
2023/06/28 10:48:45;;;;;;;0.60;0.60;;;;;;;21.94;54.40;101291.03;5148658;28;20058;-80
2023/06/28 10:51:36;;;;;;;0.20;0.20;;;;;;;22.00;53.70;101293.31;5148224;28;20026;-81
2023/06/28 10:54:27;;;;;;;0.20;0.20;;;;;;;22.08;54.23;101283.94;5149711;28;20037;-81
2023/06/28 10:57:18;;;;;;;0.20;0.20;;;;;;;21.97;52.79;101285.50;5161572;28;20038;-81
2023/06/28 11:00:40;;;;;;;0.85;0.85;;;;;;;22.06;54.87;101284.03;5162785;28;20102;-80
2023/06/28 11:03:38;;;;;;;0.40;0.40;;;;;;;22.13;55.20;101279.13;5173852;28;20101;-80
2023/06/28 11:06:29;;;;;;;0.47;0.47;;;;;;;22.26;55.10;101279.16;5162275;28;20037;-79
2023/06/28 11:09:20;;;;;;;4.85;1.15;;;;;;;22.40;54.61;101278.25;5157858;28;20046;-81
2023/06/28 11:12:18;;;;;;;0.30;0.30;;;;;;;22.45;54.90;101278.78;5158987;28;20034;-80
2023/06/28 11:15:13;;;;;;;0.20;0.20;;;;;;;22.43;53.79;101281.56;5170981;28;20034;-81
2023/06/28 11:18:15;;;;;;;1.50;0.82;;;;;;;22.51;54.85;101280.19;5161788;28;20037;-81
2023/06/28 11:21:14;;;;;;;0.57;0.57;;;;;;;22.54;52.60;101263.94;5166448;28;20038;-81
2023/06/28 11:24:05;;;;;;;0.77;0.77;;;;;;;22.62;53.83;101275.78;5165733;28;20043;-80
2023/06/28 11:26:57;;;;;;;0.40;0.40;;;;;;;22.73;53.94;101272.38;5165720;28;20037;-81
2023/06/28 11:30:01;;;;;;;1.50;0.52;;;;;;;22.71;52.22;101270.78;5159028;28;20042;-80
2023/06/28 11:32:52;;;;;;;0.63;0.63;;;;;;;22.42;51.20;101271.00;5156016;28;20046;-81
2023/06/28 11:35:43;;;;;;;0.50;0.50;;;;;;;22.46;51.39;101272.47;5155444;28;20054;-81
2023/06/28 11:38:35;;;;;;;0.70;0.70;;;;;;;22.68;52.60;101273.69;5153831;28;20038;-81
2023/06/28 11:41:27;;;;;;;0.50;0.50;;;;;;;22.78;52.59;101270.25;5157495;28;20093;-81
2023/06/28 11:44:17;;;;;;;6.10;1.70;;;;;;;22.78;52.00;101264.91;5158012;28;20416;-81
2023/06/28 11:47:08;;;;;;;1.27;0.65;;;;;;;22.60;51.61;101263.50;5156175;28;20042;-81
2023/06/28 11:49:59;;;;;;;0.88;0.63;;;;;;;22.51;51.38;101262.34;5156984;28;20030;-81
2023/06/28 11:52:51;;;;;;;0.40;0.40;;;;;;;22.79;52.44;101260.38;5163590;28;20109;-81
2023/06/28 11:55:42;;;;;;;3.38;1.25;;;;;;;22.80;52.80;101259.44;5146563;28;20444;-80
2023/06/28 11:58:35;;;;;;;1.27;0.57;;;;;;;22.74;51.61;101255.38;5160181;28;20065;-81
2023/06/28 12:01:26;;;;;;;0.45;0.45;;;;;;;22.74;51.85;101250.00;5159582;28;20431;-81
2023/06/28 12:04:18;;;;;;;0.20;0.20;;;;;;;22.82;52.27;101249.47;5167192;28;20053;-81
2023/06/28 12:07:09;;;;;;;0.30;0.30;;;;;;;22.63;51.49;101248.09;5152036;28;20045;-81
2023/06/28 12:10:00;;;;;;;1.95;0.93;;;;;;;22.84;52.44;101242.22;5163823;28;20035;-80
2023/06/28 12:12:51;;;;;;;0.55;0.55;;;;;;;22.97;52.79;101252.91;5156574;28;20042;-81
2023/06/28 12:15:41;;;;;;;0.47;0.47;;;;;;;22.79;51.83;101247.88;5169276;28;20038;-80
2023/06/28 12:18:53;;;;;;;0.70;0.70;;;;;;;22.82;51.74;101245.94;5159749;28;20039;-80
2023/06/28 12:21:44;;;;;;;0.32;0.32;;;;;;;23.11;51.98;101235.81;5158306;28;20023;-80
2023/06/28 12:24:36;;;;;;;0.63;0.63;;;;;;;23.21;51.91;101238.75;5141716;28;20023;-80
2023/06/28 12:27:27;;;;;;;0.40;0.40;;;;;;;23.34;51.72;101241.38;5141168;28;20545;-80
2023/06/28 12:30:18;;;;;;;0.40;0.40;;;;;;;23.19;50.71;101251.38;5158626;28;20035;-80
2023/06/28 12:33:09;;;;;;;0.55;0.55;;;;;;;23.15;49.85;101250.72;5142865;28;20066;-84
2023/06/28 12:35:59;;;;;;;0.63;0.63;;;;;;;23.07;49.94;101247.75;5160226;28;20042;-83
2023/06/28 12:38:50;;;;;;;1.00;0.43;;;;;;;23.01;50.16;101241.00;5154974;28;20046;-83
2023/06/28 12:42:01;;;;;;;0.10;0.10;;;;;;;23.03;50.10;101238.19;5156938;28;20061;-81
2023/06/28 12:44:58;;;;;;;0.50;0.50;;;;;;;23.24;49.79;101243.84;5155390;28;20483;-82
2023/06/28 12:47:49;;;;;;;0.20;0.20;;;;;;;23.17;49.80;101235.41;5156423;28;20077;-82
2023/06/28 12:50:40;;;;;;;0.30;0.30;;;;;;;23.24;50.18;101238.50;5157675;28;20031;-82
2023/06/28 12:53:30;;;;;;;1.35;0.77;;;;;;;23.43;50.80;101232.66;5155179;28;20122;-83
2023/06/28 12:56:21;;;;;;;1.38;1.27;;;;;;;23.38;49.79;101245.53;5158441;28;20579;-83
2023/06/28 12:59:12;;;;;;;0.50;0.50;;;;;;;23.32;48.86;101233.44;5165884;28;20121;-81
2023/06/28 13:02:03;;;;;;;1.45;1.35;;;;;;;23.23;49.32;101232.31;5146524;28;20396;-82
2023/06/28 13:04:54;;;;;;;4.47;2.00;;;;;;;23.45;49.38;101233.41;5156579;28;20643;-82
2023/06/28 13:07:45;;;;;;;2.08;0.45;;;;;;;23.63;50.78;101235.69;5155529;28;20071;-82
2023/06/28 13:10:36;;;;;;;0.35;0.35;;;;;;;23.64;49.40;101240.09;5142469;28;20054;-82
2023/06/28 13:13:27;;;;;;;0.70;0.70;;;;;;;23.69;49.56;101237.91;5153430;28;20612;-82
2023/06/28 13:16:20;;;;;;;0.47;0.47;;;;;;;23.57;48.95;101235.19;5154410;28;20517;-82
2023/06/28 13:19:11;;;;;;;1.88;1.27;;;;;;;23.57;48.73;101235.19;5141709;28;20065;-82